Weather observations for the past three days for
Iron Mountain / Kingsford, Ford Airport
Metric (Imperial)
Date Time (cdt) Wind (kph) Vis. (km) Weather Sky Cond. Temperature (ºC) Relative Humidity Wind Chill (°C) Heat Index (°C) Pressure Precipitation (cm)
Air Dwpt 6 hour altimeter (cm) sea level (mb) 1 hr 3 hr 6 hr
Max. Min.
06 22:54 Calm 16.09 Overcast OVC070 3.9 -3.3 60% 75.95 1013.4
06 21:54 NW 11 16.09 Overcast FEW047 SCT060 OVC075 4.4 -3.9 55% 2 75.95 1013.7
06 20:54 W 9 16.09 Overcast FEW050 OVC075 5 -5 49% 3 75.92 1013.4
06 19:54 NW 13 16.09 Overcast OVC075 5 -5.6 47% 2 75.92 1013.2
06 18:54 NW 15 16.09 Overcast OVC065 5.6 -5.6 6.7 3.9 45% 3 75.9 1012.9
06 17:54 NW 22 G 43 16.09 Overcast OVC065 6.1 -6.1 42% 3 75.9 1012.9
06 16:54 NW 28 G 43 16.09 Overcast OVC065 6.7 -6.1 40% 3 75.87 1012.8
06 15:54 NW 20 16.09 Overcast OVC065 6.7 -5.6 41% 3 75.87 1012.7
06 14:54 NW 20 16.09 Overcast OVC060 6.1 -6.1 42% 3 75.9 1013.1
06 13:54 W 22 16.09 Overcast OVC047 5 -5 49% 1 75.92 1013.5
06 12:54 W 15 16.09 Overcast BKN038 OVC050 3.9 -3.3 5 1.7 60% 1 75.92 1013.5
06 11:54 NW 22 16.09 Overcast OVC044 3.9 -3.9 57% -0 75.95 1013.6
06 10:54 NW 19 16.09 Overcast OVC046 4.4 -5.6 49% 1 75.92 1013.3
06 09:54 W 19 G 35 16.09 Overcast OVC050 5 -5.6 47% 2 75.87 1012.7
06 08:54 W 15 16.09 Overcast OVC055 3.9 -5.6 50% 1 75.87 1012.7
06 07:54 NW 13 16.09 Overcast OVC055 2.8 -3.9 62% -0 75.9 1013.0
06 06:54 W 9 16.09 Overcast OVC055 1.7 -3.9 1.7 -2.2 67% -1 75.84 1012.4
06 05:54 W 9 16.09 Overcast OVC060 1.1 -3.9 70% -1 75.82 1011.8
06 04:54 SW 7 16.09 Overcast OVC060 0.6 -3.9 72% -1 75.79 1011.5
06 03:54 W 7 16.09 Overcast OVC055 0.6 -4.4 70% -1 75.77 1011.3
06 02:54 N 6 16.09 Overcast OVC050 -0.6 -4.4 76% 75.77 1011.3
06 01:54 Calm 16.09 A Few Clouds FEW049 -2.2 -5.6 78% 75.77 1011.2
06 00:54 S 6 16.09 Fair CLR -0.6 -4.4 6.1 -0.6 76% 75.77 1011.2
05 23:54 NW 7 16.09 Overcast OVC060 2.8 -5.6 54% 1 75.74 1010.8
05 22:54 NW 11 16.09 Overcast OVC060 3.3 -5 55% 1 75.74 1010.8
05 21:54 N 9 16.09 Overcast OVC060 3.3 -4.4 57% 1 75.74 1010.9
05 20:54 N 20 16.09 Overcast OVC065 4.4 -5 51% 1 75.69 1010.1
05 19:54 NW 7 16.09 Overcast OVC060 5 -5.6 47% 4 75.64 1009.6
05 18:54 W 20 16.09 Overcast OVC060 6.1 -6.7 9.4 6.1 40% 3 75.62 1009.2
05 17:54 NW 19 16.09 Overcast OVC060 6.7 -5.6 41% 4 75.59 1008.6
05 16:54 NW 24 G 39 16.09 Overcast OVC060 7.8 -5.6 38% 5 75.54 1008.1
05 15:54 NW 28 G 41 16.09 Overcast OVC065 8.3 -5 39% 5 75.51 1007.5
05 14:54 W 17 G 41 16.09 Overcast OVC070 8.9 -6.1 34% 7 75.46 1006.9
05 13:54 NW 24 G 39 16.09 Overcast OVC065 8.3 -4.4 41% 5 75.44 1006.6
05 12:54 W 22 G 31 16.09 Overcast OVC060 8.3 -5 9.4 4.4 39% 5 75.39 1005.9
05 11:54 NW 24 G 35 16.09 Mostly Cloudy BKN060 8.9 -4.4 39% 6 75.36 1005.3
05 10:54 NW 17 G 33 16.09 Overcast OVC060 7.8 -4.4 42% 5 75.34 1005.3
05 09:54 W 17 G 30 16.09 Mostly Cloudy BKN055 BKN065 6.7 -3.9 47% 4 75.34 1005.3
05 08:54 W 17 16.09 Overcast FEW038 SCT048 OVC060 6.7 -2.2 53% 4 75.31 1004.8
05 07:54 W 17 16.09 Mostly Cloudy FEW038 BKN070 5 -2.2 60% 2 75.26 1004.2
05 06:54 SW 7 16.09 Overcast OVC070 4.4 -1.7 6.1 3.9 65% 3 75.26 1004.0
05 05:54 W 6 16.09 Overcast FEW050 OVC070 3.9 -2.8 62% 75.21 1003.3
05 04:54 NW 9 16.09 Overcast OVC070 3.9 -3.3 60% 2 75.16 1002.4
05 03:54 NW 17 16.09 Overcast OVC070 4.4 -3.3 58% 1 75.11 1001.8
05 02:54 NW 22 16.09 Mostly Cloudy SCT049 BKN065 5.6 -3.3 53% 2 75.11 1001.6
05 01:54 NW 17 G 31 16.09 Overcast BKN060 OVC070 5.6 -3.9 51% 3 75.11 1001.4
05 00:54 NW 22 G 35 16.09 Partly Cloudy SCT060 6.1 -3.9 14.4 6.1 49% 3 75.08 1001.1
04 23:54 NW 11 16.09 Mostly Cloudy BKN065 6.1 -2.8 53% 4 75.01 1000.2
04 22:54 NW 19 16.09 Fair CLR 6.7 -2.8 51% 4 74.96 999.4
04 21:54 NW 20 16.09 Fair CLR 7.8 -2.2 50% 5 74.93 998.9
04 20:54 NW 26 G 43 16.09 Fair CLR 9.4 -2.2 44% 6 74.85 998.3
04 19:54 NW 35 G 48 16.09 Fair and Breezy CLR 11.1 -0.6 45% 74.75 997.0
04 18:54 NW 35 G 46 16.09 Mostly Cloudy and Breezy BKN095 14.4 1.1 22.8 14.4 41% 74.63 995.3
04 17:54 NW 31 G 50 16.09 Mostly Cloudy BKN090 16.1 1.1 36% 74.55 994.2
04 16:54 W 28 G 52 16.09 A Few Clouds FEW090 18.3 0 29% 74.47 993.1
04 15:54 W 24 G 44 16.09 Overcast OVC110 18.9 0 28% 74.45 992.6
04 14:54 W 31 G 48 16.09 Partly Cloudy SCT110 18.9 -1.7 25% 74.4 991.9
04 13:54 W 35 G 50 16.09 A Few Clouds and Breezy FEW090 21.1 4.4 34% 74.37 991.5
04 12:54 W 30 G 57 16.09 Mostly Cloudy SCT080 BKN095 20.6 2.2 21.1 10 30% 74.35 991.2
04 11:54 W 20 G 41 16.09 A Few Clouds FEW110 21.1 3.9 32% 74.35 991.5
04 10:54 SW 30 G 48 16.09 Overcast OVC100 20 3.3 33% 74.32 991.1
04 09:54 SW 43 G 69 16.09 A Few Clouds and Windy FEW100 20.6 2.2 30% 74.32 990.8
04 08:54 S 19 G 30 16.09 Fair CLR 15 2.2 42% 74.35 991.3
04 07:54 S 19 16.09 Fair CLR 12.2 1.7 49% 74.47 993.1
04 06:54 S 19 16.09 Fair CLR 10 2.2 10 5.6 59% 8 74.55 994.0
04 05:54 S 19 16.09 Fair CLR 8.9 3.3 68% 6 74.65 995.2
04 04:54 S 17 16.09 Fair CLR 8.3 4.4 77% 6 74.73 996.4
04 03:54 S 19 16.09 Fair CLR 8.3 4.4 77% 6 74.83 997.8
04 02:54 S 19 16.09 Fair CLR 8.9 4.4 74% 6 74.88 998.4
04 01:54 S 13 16.09 Fair CLR 7.8 3.3 73% 6 74.96 999.6
04 00:54 S 7 16.09 Fair CLR 6.7 -1.1 18.3 2.8 58% 6 75.03 1000.7
03 23:54 Calm 16.09 Fair CLR 3.3 -2.8 65% 75.08 1001.4
Date Time (cdt) Wind (kph) Vis. (km) Weather Sky Cond. Air Dwpt Max. Min. Relative Humidity Wind Chill (°C) Heat Index (°C) altimeter (cm) sea level (mb) 1 hr 3 hr 6 hr
6 hour
Temperature (ºC) Pressure Precipitation (cm)